MMCL/CUL METAR and TAF weather

Enter ICAO airport designator
Station Type Date Time Source
MMCL METAR 2019/10/15 20:41 UTC NOAA

MMCL 152041Z 34006KT 10SM SCT015 33/23 A2978 RMK SLP084 57029 959 8/100


Station Type Date Time Source
MMCL Decoded METAR 2019/10/15 20:41 UTC NOAA

Culiacan, Sin., Mexico (MMCL) 24-49N 107-24W
Oct 15, 2019 - 04:41 PM EDT / 2019.10.15 2041 UTC
Wind: from the NNW (340 degrees) at 7 MPH (6 KT):0
Visibility: 10 mile(s):0
Sky conditions: partly cloudy
Temperature: 91 F (33 C)
Heat index: 99.1 F (37.3 C):1
Dew Point: 73 F (23 C)
Relative Humidity: 55%
Pressure (altimeter): 29.78 in. Hg (1008 hPa)
Pressure tendency: 0.09 inches (2.9 hPa) lower than three hours ago
ob: MMCL 152041Z 34006KT 10SM SCT015 33/23 A2978 RMK SLP084 57029 959 8/100
cycle: 20

Station Type Date Time Source
MMCL TAF 2019/10/15 18:17 UTC NOAA

TAF MMCL 151712Z 1518/1618 23010KT P6SM SCT020
FM160000 00000KT P6SM SKC
FM161400 00000KT P6SM SCT010

Example: see airport list